createdAt,value
2017-11-14T00:02:47.740Z,6.30
2017-11-14T00:05:49.139Z,6.40
2017-11-14T00:08:50.485Z,6.30
2017-11-14T00:11:51.866Z,6.20
2017-11-14T00:14:53.202Z,6.30
2017-11-14T00:17:54.570Z,6.20
2017-11-14T00:20:56.054Z,5.80
2017-11-14T00:23:57.579Z,5.90
2017-11-14T00:26:59.004Z,5.80
2017-11-14T00:30:00.369Z,5.80
2017-11-14T00:33:01.808Z,6.00
2017-11-14T00:36:03.201Z,5.90
2017-11-14T00:39:04.593Z,5.90
2017-11-14T00:42:06.061Z,5.80
2017-11-14T00:45:07.422Z,6.00
2017-11-14T00:48:08.837Z,5.90
2017-11-14T00:51:10.957Z,5.80
2017-11-14T00:54:12.329Z,5.80
2017-11-14T00:57:13.705Z,5.90
2017-11-14T01:00:15.821Z,6.00
2017-11-14T01:03:17.200Z,5.90
2017-11-14T01:06:18.616Z,5.70
2017-11-14T01:09:21.577Z,5.70
2017-11-14T01:12:22.970Z,6.10
2017-11-14T01:15:24.306Z,6.00
2017-11-14T01:18:25.677Z,5.70
2017-11-14T01:21:27.069Z,5.80
2017-11-14T01:24:29.182Z,5.90
2017-11-14T01:27:30.541Z,5.90
2017-11-14T01:30:32.074Z,6.00
2017-11-14T01:33:33.477Z,6.00
2017-11-14T01:36:34.869Z,6.00
2017-11-14T01:39:36.297Z,6.10
2017-11-14T01:42:38.465Z,6.10
2017-11-14T01:45:40.599Z,6.00
2017-11-14T01:48:42.083Z,6.00
2017-11-14T01:51:44.176Z,6.00
2017-11-14T01:54:45.665Z,6.00
2017-11-14T01:57:47.093Z,5.70
2017-11-14T02:00:48.465Z,6.10
2017-11-14T02:03:49.901Z,6.00
2017-11-14T02:06:51.277Z,5.90
2017-11-14T02:09:52.772Z,6.00
2017-11-14T02:12:54.200Z,5.90
2017-11-14T02:15:55.569Z,5.80
2017-11-14T02:18:58.436Z,6.10
2017-11-14T02:22:00.546Z,6.00
2017-11-14T02:25:03.807Z,6.10
2017-11-14T02:28:05.158Z,6.00
2017-11-14T02:31:07.235Z,6.00
2017-11-14T02:34:09.744Z,6.00
2017-11-14T02:37:12.594Z,6.00
2017-11-14T02:40:14.201Z,6.00
2017-11-14T02:43:15.748Z,6.00
2017-11-14T02:46:18.316Z,5.80
2017-11-14T02:49:20.017Z,6.10
2017-11-14T02:52:21.471Z,5.70
2017-11-14T02:55:23.021Z,5.90
2017-11-14T02:58:26.021Z,6.00
2017-11-14T03:01:27.533Z,5.80
2017-11-14T03:04:29.271Z,5.60
2017-11-14T03:07:31.005Z,5.70
2017-11-14T03:10:32.424Z,5.70
2017-11-14T03:13:33.841Z,6.00
2017-11-14T03:16:35.258Z,5.80
2017-11-14T03:19:36.617Z,5.70
2017-11-14T03:22:38.806Z,5.70
2017-11-14T03:25:40.160Z,5.50
2017-11-14T03:28:41.602Z,5.70
2017-11-14T03:31:43.058Z,5.50
2017-11-14T03:34:44.425Z,5.60
2017-11-14T03:37:45.842Z,5.70
2017-11-14T03:40:47.987Z,5.90
2017-11-14T03:43:49.483Z,5.80
2017-11-14T03:46:50.917Z,5.90
2017-11-14T03:49:53.027Z,5.90
2017-11-14T03:52:54.447Z,5.80
2017-11-14T03:55:56.533Z,5.80
2017-11-14T03:58:57.973Z,5.80
2017-11-14T04:01:59.397Z,6.00
2017-11-14T04:05:01.597Z,5.80
2017-11-14T04:08:03.023Z,5.70
2017-11-14T04:11:05.143Z,5.90
2017-11-14T04:14:06.582Z,5.70
2017-11-14T04:17:07.973Z,5.90
2017-11-14T04:20:09.521Z,5.90
2017-11-14T04:23:10.910Z,5.70
2017-11-14T04:26:13.050Z,5.80
2017-11-14T04:29:14.419Z,5.80
2017-11-14T04:32:15.796Z,5.80
2017-11-14T04:35:17.172Z,5.80
2017-11-14T04:38:18.560Z,5.80
2017-11-14T04:41:20.052Z,5.70
2017-11-14T04:44:21.478Z,5.70
2017-11-14T04:47:23.577Z,5.60
2017-11-14T04:50:24.949Z,5.50
2017-11-14T04:53:26.405Z,5.50
2017-11-14T04:56:27.780Z,5.20
2017-11-14T04:59:29.274Z,5.30
2017-11-14T05:02:30.600Z,5.30
2017-11-14T05:05:32.677Z,5.20
2017-11-14T05:08:34.804Z,5.30
2017-11-14T05:11:36.198Z,5.30
2017-11-14T05:14:38.276Z,5.30
2017-11-14T05:17:39.918Z,5.30
2017-11-14T05:20:42.083Z,5.40
2017-11-14T05:23:44.270Z,5.40
2017-11-14T05:26:45.645Z,5.40
2017-11-14T05:29:47.009Z,5.30
2017-11-14T05:32:48.462Z,5.40
2017-11-14T05:35:49.901Z,5.20
2017-11-14T05:38:51.272Z,5.40
2017-11-14T05:41:52.667Z,5.40
2017-11-14T05:44:54.907Z,5.40
2017-11-14T05:47:56.307Z,5.50
2017-11-14T05:50:57.710Z,5.20
2017-11-14T05:53:59.083Z,5.30
2017-11-14T05:57:01.249Z,5.30
2017-11-14T06:00:03.441Z,5.40
2017-11-14T06:03:04.889Z,5.40
2017-11-14T06:06:06.981Z,5.40
2017-11-14T06:09:08.337Z,5.40
2017-11-14T06:12:09.809Z,5.30
2017-11-14T06:15:11.142Z,5.40
2017-11-14T06:18:12.527Z,5.30
2017-11-14T06:21:13.933Z,5.30
2017-11-14T06:24:15.297Z,5.30
2017-11-14T06:27:16.801Z,5.20
2017-11-14T06:30:18.164Z,5.30
2017-11-14T06:33:20.328Z,5.20
2017-11-14T06:36:22.465Z,5.20
2017-11-14T06:39:23.916Z,5.10
2017-11-14T06:42:25.473Z,5.00
2017-11-14T06:45:26.895Z,5.30
2017-11-14T06:48:28.261Z,5.20
2017-11-14T06:51:29.653Z,5.20
2017-11-14T06:54:31.709Z,5.30
2017-11-14T06:57:33.084Z,5.30
2017-11-14T07:00:34.502Z,5.40
2017-11-14T07:03:35.776Z,5.50
2017-11-14T07:06:37.878Z,5.50
2017-11-14T07:09:39.128Z,5.50
2017-11-14T07:12:40.426Z,5.50
2017-11-14T07:15:41.709Z,5.60
2017-11-14T07:18:42.975Z,5.60
2017-11-14T07:21:44.316Z,5.70
2017-11-14T07:24:45.598Z,5.70
2017-11-14T07:27:46.916Z,5.80
2017-11-14T07:30:48.209Z,5.80
2017-11-14T07:33:49.516Z,5.80
2017-11-14T07:36:50.827Z,5.80
2017-11-14T07:39:52.904Z,5.90
2017-11-14T07:42:54.902Z,6.00
2017-11-14T07:45:56.185Z,6.00
2017-11-14T07:48:57.462Z,6.00
2017-11-14T07:51:59.529Z,6.00
2017-11-14T07:55:01.553Z,6.00
2017-11-14T07:58:02.878Z,6.00
2017-11-14T08:01:04.153Z,6.00
2017-11-14T08:04:05.438Z,6.10
2017-11-14T08:07:06.764Z,6.10
2017-11-14T08:10:08.059Z,6.20
2017-11-14T08:13:09.320Z,6.20
2017-11-14T08:16:10.625Z,6.20
2017-11-14T08:19:11.902Z,6.20
2017-11-14T08:22:13.332Z,6.20
2017-11-14T08:25:14.627Z,6.30
2017-11-14T08:28:15.932Z,6.30
2017-11-14T08:31:17.224Z,6.40
2017-11-14T08:34:18.489Z,6.40
2017-11-14T08:37:19.813Z,6.50
2017-11-14T08:40:21.162Z,6.40
2017-11-14T08:43:22.473Z,6.40
2017-11-14T08:46:23.768Z,6.40
2017-11-14T08:49:25.029Z,6.50
2017-11-14T08:52:26.304Z,6.50
2017-11-14T08:55:27.586Z,6.50
2017-11-14T08:58:29.604Z,6.60
2017-11-14T09:01:30.932Z,6.60
2017-11-14T09:04:32.241Z,6.60
2017-11-14T09:07:34.340Z,6.70
2017-11-14T09:10:35.654Z,6.70
2017-11-14T09:13:37.714Z,6.70
2017-11-14T09:16:39.080Z,6.70
2017-11-14T09:19:41.126Z,6.70
2017-11-14T09:22:42.473Z,6.70
2017-11-14T09:25:43.800Z,6.70
2017-11-14T09:28:45.137Z,6.90
2017-11-14T09:31:46.449Z,6.70
2017-11-14T09:34:48.532Z,6.70
2017-11-14T09:37:49.856Z,6.70
2017-11-14T09:40:51.946Z,6.50
2017-11-14T09:43:53.268Z,6.50
2017-11-14T09:46:55.300Z,6.50
2017-11-14T09:49:56.616Z,6.50
2017-11-14T09:52:57.917Z,6.50
2017-11-14T09:55:59.250Z,6.60
2017-11-14T09:59:00.569Z,6.70
2017-11-14T10:02:01.945Z,6.70
2017-11-14T10:05:03.262Z,6.80
2017-11-14T10:08:04.597Z,6.70
2017-11-14T10:11:12.861Z,6.80
2017-11-14T10:14:14.225Z,6.90
2017-11-14T10:17:15.570Z,6.90
2017-11-14T10:20:16.911Z,6.90
2017-11-14T10:23:18.223Z,6.80
2017-11-14T10:26:19.533Z,6.90
2017-11-14T10:29:20.884Z,6.90
2017-11-14T10:32:22.194Z,6.90
2017-11-14T10:35:23.567Z,7.20
2017-11-14T10:38:24.951Z,7.20
2017-11-14T10:41:27.021Z,7.30
2017-11-14T10:44:29.116Z,7.40
2017-11-14T10:47:30.411Z,7.30
2017-11-14T10:50:31.745Z,7.40
2017-11-14T10:53:33.076Z,7.60
2017-11-14T10:56:34.357Z,7.60
2017-11-14T10:59:35.702Z,7.60
2017-11-14T11:02:37.061Z,7.60
2017-11-14T11:05:38.408Z,7.60
2017-11-14T11:08:39.700Z,7.70
2017-11-14T11:11:41.017Z,7.80
2017-11-14T11:14:42.375Z,7.90
2017-11-14T11:17:44.424Z,7.90
2017-11-14T11:20:45.774Z,7.90
2017-11-14T11:23:47.127Z,7.90
2017-11-14T11:26:48.416Z,7.90
2017-11-14T11:29:49.781Z,7.80
2017-11-14T11:32:51.085Z,7.80
2017-11-14T11:35:52.393Z,7.90
2017-11-14T11:38:54.597Z,7.80
2017-11-14T11:41:55.911Z,7.80
2017-11-14T11:44:57.272Z,7.70
2017-11-14T11:47:58.641Z,7.70
2017-11-14T11:51:00.041Z,7.80
2017-11-14T11:54:01.367Z,7.70
2017-11-14T11:57:03.392Z,7.70
2017-11-14T12:00:04.732Z,7.70
2017-11-14T12:03:06.080Z,7.70
2017-11-14T12:06:07.403Z,7.70
2017-11-14T12:09:08.733Z,7.80
2017-11-14T12:12:10.792Z,7.70
2017-11-14T12:15:12.874Z,7.80
2017-11-14T12:18:14.952Z,7.80
2017-11-14T12:21:16.273Z,7.80
2017-11-14T12:24:17.623Z,7.80
2017-11-14T12:27:18.968Z,7.90
2017-11-14T12:30:20.326Z,7.80
2017-11-14T12:33:22.432Z,8.00
2017-11-14T12:36:23.755Z,8.00
2017-11-14T12:39:25.877Z,7.90
2017-11-14T12:42:27.150Z,7.90
2017-11-14T12:45:28.491Z,7.90
2017-11-14T12:48:29.834Z,8.00
2017-11-14T12:51:31.204Z,7.90
2017-11-14T12:54:32.580Z,7.90
2017-11-14T12:57:41.517Z,8.10
2017-11-14T13:00:42.881Z,8.10
2017-11-14T13:03:44.279Z,8.10
2017-11-14T13:06:45.623Z,8.10
2017-11-14T13:09:46.967Z,8.00
2017-11-14T13:12:48.352Z,8.00
2017-11-14T13:15:50.456Z,8.10
2017-11-14T13:18:51.797Z,8.00
2017-11-14T13:21:53.192Z,8.10
2017-11-14T13:24:54.540Z,8.10
2017-11-14T13:27:55.958Z,8.10
2017-11-14T13:30:57.337Z,8.10
2017-11-14T13:33:58.691Z,8.10
2017-11-14T13:37:00.092Z,8.10
2017-11-14T13:40:01.435Z,8.10
2017-11-14T13:43:02.795Z,8.10
2017-11-14T13:46:04.099Z,8.20
2017-11-14T13:49:05.401Z,8.10
2017-11-14T13:52:13.700Z,8.10
2017-11-14T13:55:14.969Z,8.10
2017-11-14T13:58:16.270Z,8.10
2017-11-14T14:01:17.547Z,8.10
2017-11-14T14:04:18.856Z,8.00
2017-11-14T14:07:20.198Z,8.00
2017-11-14T14:10:21.501Z,8.00
2017-11-14T14:13:22.828Z,8.10
2017-11-14T14:16:24.852Z,8.10
2017-11-14T14:19:26.125Z,8.00
2017-11-14T14:22:27.453Z,8.00
2017-11-14T14:25:28.713Z,8.10
2017-11-14T14:28:30.123Z,8.50
2017-11-14T14:31:31.435Z,9.00
2017-11-14T14:34:33.515Z,8.40
2017-11-14T14:37:35.518Z,8.20
2017-11-14T14:40:36.844Z,8.20
2017-11-14T14:43:38.125Z,8.20
2017-11-14T14:46:39.437Z,8.10
2017-11-14T14:49:40.724Z,8.10
2017-11-14T14:52:42.004Z,8.20
2017-11-14T14:55:43.296Z,8.10
2017-11-14T14:58:44.553Z,8.10
2017-11-14T15:01:45.871Z,8.10
2017-11-14T15:04:47.896Z,8.10
2017-11-14T15:07:49.195Z,8.10
2017-11-14T15:10:50.473Z,8.10
2017-11-14T15:13:51.760Z,8.10
2017-11-14T15:16:53.041Z,8.10
2017-11-14T15:19:54.375Z,8.10
2017-11-14T15:22:56.428Z,8.10
2017-11-14T15:25:57.689Z,8.10
2017-11-14T15:28:59.760Z,8.00
2017-11-14T15:32:01.862Z,8.10
2017-11-14T15:35:03.200Z,8.00
2017-11-14T15:38:04.523Z,8.00
2017-11-14T15:41:06.587Z,8.10
2017-11-14T15:44:15.593Z,8.00
2017-11-14T15:47:16.903Z,8.00
2017-11-14T15:50:18.249Z,8.00
2017-11-14T15:53:19.581Z,8.00
2017-11-14T15:56:20.896Z,8.00
2017-11-14T15:59:22.205Z,8.00
2017-11-14T16:02:23.519Z,8.00
2017-11-14T16:05:25.560Z,8.10
2017-11-14T16:08:26.945Z,8.10
2017-11-14T16:11:28.290Z,8.20
2017-11-14T16:14:29.627Z,8.10
2017-11-14T16:17:31.710Z,8.00
2017-11-14T16:20:33.839Z,8.00
2017-11-14T16:23:35.382Z,8.00
2017-11-14T16:26:36.748Z,8.00
2017-11-14T16:29:38.163Z,8.10
2017-11-14T16:32:39.490Z,8.00
2017-11-14T16:35:41.039Z,8.00
2017-11-14T16:38:43.124Z,8.00
2017-11-14T16:41:44.737Z,8.00
2017-11-14T16:44:46.210Z,8.40
2017-11-14T16:47:48.331Z,8.20
2017-11-14T16:50:49.792Z,8.00
2017-11-14T16:53:51.175Z,7.90
2017-11-14T16:56:53.310Z,8.00
2017-11-14T17:03:03.261Z,7.80
2017-11-14T17:06:04.665Z,8.00
2017-11-14T17:09:06.826Z,8.00
2017-11-14T17:12:09.154Z,8.00
2017-11-14T17:15:10.706Z,7.70
2017-11-14T17:18:12.131Z,7.90
2017-11-14T17:21:13.564Z,8.00
2017-11-14T17:24:15.655Z,8.00
2017-11-14T17:27:23.921Z,7.90
2017-11-14T17:30:25.338Z,8.00
2017-11-14T17:33:26.851Z,7.70
2017-11-14T17:36:29.153Z,8.00
2017-11-14T17:39:30.570Z,7.90
2017-11-14T17:42:32.035Z,8.00
2017-11-14T17:45:34.177Z,7.90
2017-11-14T17:48:35.545Z,7.60
2017-11-14T17:51:37.700Z,8.00
2017-11-14T17:54:39.074Z,8.00
2017-11-14T17:57:41.316Z,7.90
2017-11-14T18:00:42.766Z,8.10
2017-11-14T18:03:44.159Z,8.00
2017-11-14T18:06:45.681Z,8.00
2017-11-14T18:09:47.011Z,7.90
2017-11-14T18:12:48.453Z,7.80
2017-11-14T18:15:49.906Z,7.90
2017-11-14T18:18:51.368Z,8.00
2017-11-14T18:21:52.845Z,8.00
2017-11-14T18:25:01.216Z,8.00
2017-11-14T18:28:02.721Z,8.00
2017-11-14T18:31:04.143Z,8.10
2017-11-14T18:34:05.669Z,7.90
2017-11-14T18:37:07.164Z,8.00
2017-11-14T18:40:08.625Z,8.00
2017-11-14T18:43:10.984Z,8.10
2017-11-14T18:46:12.434Z,8.10
2017-11-14T18:49:14.113Z,8.10
2017-11-14T18:52:15.477Z,8.10
2017-11-14T18:55:17.906Z,8.20
2017-11-14T18:58:19.335Z,8.40
2017-11-14T19:01:24.585Z,8.20
2017-11-14T19:04:26.292Z,8.20
2017-11-14T19:07:28.973Z,8.20
2017-11-14T19:10:30.590Z,8.20
2017-11-14T19:13:33.813Z,8.00
2017-11-14T19:16:36.909Z,8.00
2017-11-14T19:19:39.586Z,8.00
2017-11-14T19:22:41.909Z,8.00
2017-11-14T19:25:43.592Z,8.10
2017-11-14T19:28:45.090Z,8.00
2017-11-14T19:31:47.705Z,7.90
2017-11-14T19:34:50.690Z,7.90
2017-11-14T19:37:52.339Z,7.90
2017-11-14T19:40:54.689Z,7.90
2017-11-14T19:43:56.807Z,7.90
2017-11-14T19:46:58.321Z,7.90
2017-11-14T19:50:00.521Z,7.80
2017-11-14T19:53:02.228Z,7.80
2017-11-14T19:56:03.700Z,7.80
2017-11-14T19:59:06.897Z,7.90
2017-11-14T20:02:09.084Z,7.90
2017-11-14T20:05:10.759Z,7.80
2017-11-14T20:08:13.209Z,7.90
2017-11-14T20:11:15.049Z,7.90
2017-11-14T20:14:16.548Z,7.90
2017-11-14T20:17:19.130Z,7.90
2017-11-14T20:20:21.022Z,7.90
2017-11-14T20:23:22.409Z,7.90
2017-11-14T20:26:24.420Z,7.90
2017-11-14T20:29:26.038Z,7.70
2017-11-14T20:32:28.419Z,7.90
2017-11-14T20:35:30.730Z,7.90
2017-11-14T20:38:33.079Z,7.80
2017-11-14T20:41:34.470Z,7.90
2017-11-14T20:44:36.395Z,7.70
2017-11-14T20:47:40.328Z,8.00
2017-11-14T20:50:42.731Z,7.80
2017-11-14T20:53:44.198Z,7.70
2017-11-14T20:56:46.466Z,7.70
2017-11-14T20:59:49.036Z,7.70
2017-11-14T21:02:50.655Z,7.70
2017-11-14T21:05:52.157Z,7.70
2017-11-14T21:08:53.882Z,7.70
2017-11-14T21:11:56.421Z,7.70
2017-11-14T21:14:58.711Z,7.70
2017-11-14T21:18:01.312Z,7.70
2017-11-14T21:21:03.267Z,7.80
2017-11-14T21:24:04.682Z,7.80
2017-11-14T21:27:07.661Z,7.90
2017-11-14T21:30:10.794Z,7.90
2017-11-14T21:33:13.359Z,7.80
2017-11-14T21:36:15.141Z,7.90
2017-11-14T21:39:16.908Z,7.90
2017-11-14T21:42:20.205Z,7.90
2017-11-14T21:45:22.828Z,7.90
2017-11-14T21:48:27.459Z,7.90
2017-11-14T21:51:28.953Z,7.90
2017-11-14T21:54:30.320Z,12.40
2017-11-14T21:57:33.861Z,15.80
2017-11-14T22:00:35.488Z,13.90
2017-11-14T22:03:36.916Z,11.30
2017-11-14T22:06:38.440Z,9.90
2017-11-14T22:09:40.448Z,8.90
2017-11-14T22:12:45.019Z,8.30
2017-11-14T22:15:47.310Z,8.30
2017-11-14T22:18:49.224Z,8.10
2017-11-14T22:21:51.169Z,8.10
2017-11-14T22:24:52.601Z,8.10
2017-11-14T22:27:54.025Z,8.00
2017-11-14T22:30:56.165Z,7.90
2017-11-14T22:33:57.642Z,7.90
2017-11-14T22:36:59.766Z,7.90
2017-11-14T22:40:01.198Z,7.90
2017-11-14T22:43:02.651Z,7.80
2017-11-14T22:46:04.089Z,7.90
2017-11-14T22:49:05.553Z,8.00
2017-11-14T22:52:06.903Z,8.00
2017-11-14T22:55:08.304Z,8.00
2017-11-14T22:58:09.686Z,8.00
2017-11-14T23:01:11.163Z,7.80
2017-11-14T23:04:12.504Z,7.90
2017-11-14T23:07:13.894Z,7.90
2017-11-14T23:10:15.328Z,7.70
2017-11-14T23:13:16.722Z,7.70
2017-11-14T23:16:18.852Z,7.80
2017-11-14T23:19:20.243Z,7.80
2017-11-14T23:22:22.377Z,7.80
2017-11-14T23:25:23.729Z,7.80
2017-11-14T23:28:25.128Z,7.80
2017-11-14T23:31:27.259Z,7.80
2017-11-14T23:34:28.629Z,7.80
2017-11-14T23:37:30.038Z,7.80
2017-11-14T23:40:31.423Z,7.70
2017-11-14T23:43:32.839Z,7.70
2017-11-14T23:46:34.192Z,7.70
2017-11-14T23:49:35.642Z,7.70
2017-11-14T23:52:37.035Z,7.70
2017-11-14T23:55:38.429Z,7.80
2017-11-14T23:58:39.791Z,7.90
